Time;durP1;ratioP1;P1;durP2;ratioP2;P2;SDS_P1;SDS_P2;PMS_P1;PMS_P2;Temp;Humidity;BMP_temperature;BMP_pressure;BME280_temperature;BME280_humidity;BME280_pressure;Samples;Min_cycle;Max_cycle;Signal;HPM_P1;HPM_P2
2023/01/28 00:01:14;;;;;;;10.90;9.40;;;1.60;99.90;;;;;;5072914;28;20088;-77
2023/01/28 00:03:40;;;;;;;9.10;6.95;;;1.70;99.90;;;;;;5072227;28;20098;-77
2023/01/28 00:06:12;;;;;;;11.13;9.53;;;1.60;99.90;;;;;;5070595;28;20055;-77
2023/01/28 00:08:38;;;;;;;10.93;8.97;;;1.60;99.90;;;;;;5070972;28;20076;-77
2023/01/28 00:11:05;;;;;;;9.80;8.30;;;1.60;99.90;;;;;;5054692;28;20117;-76
2023/01/28 00:13:32;;;;;;;12.70;9.53;;;1.60;99.90;;;;;;5072468;28;20131;-77
2023/01/28 00:16:00;;;;;;;7.73;5.70;;;1.60;99.90;;;;;;5071564;28;20478;-77
2023/01/28 00:18:26;;;;;;;7.77;5.60;;;1.60;99.90;;;;;;5069947;28;20119;-77
2023/01/28 00:21:06;;;;;;;7.73;6.97;;;1.60;99.90;;;;;;5072455;28;20040;-77
2023/01/28 00:23:35;;;;;;;9.63;7.77;;;1.60;99.90;;;;;;5054035;28;20083;-77
2023/01/28 00:26:03;;;;;;;9.37;8.03;;;1.60;99.90;;;;;;5058379;28;20060;-77
2023/01/28 00:28:29;;;;;;;8.63;7.67;;;1.60;99.90;;;;;;5049740;28;20045;-77
2023/01/28 00:30:55;;;;;;;8.77;7.87;;;1.90;99.90;;;;;;5051653;28;20404;-79
2023/01/28 00:33:22;;;;;;;9.40;7.70;;;1.60;99.90;;;;;;5052309;28;20044;-77
2023/01/28 00:35:56;;;;;;;7.90;6.67;;;1.60;99.90;;;;;;5070894;28;20044;-77
2023/01/28 00:38:21;;;;;;;8.27;7.47;;;1.80;99.90;;;;;;5071214;28;20052;-77
2023/01/28 00:40:47;;;;;;;8.37;7.50;;;1.60;99.90;;;;;;5069770;28;20040;-77
2023/01/28 00:43:12;;;;;;;6.97;6.27;;;1.90;99.90;;;;;;5070644;28;20506;-77
2023/01/28 00:45:38;;;;;;;7.10;5.93;;;1.60;99.90;;;;;;5071149;28;20049;-76
2023/01/28 00:48:05;;;;;;;7.43;6.63;;;1.60;99.90;;;;;;5071082;28;20048;-77
2023/01/28 00:50:31;;;;;;;7.37;6.67;;;1.60;99.90;;;;;;5071970;28;20123;-78
2023/01/28 00:52:56;;;;;;;7.17;6.47;;;1.60;99.90;;;;;;5071259;28;20132;-77
2023/01/28 00:55:22;;;;;;;6.93;6.23;;;1.60;99.90;;;;;;5070766;28;20510;-76
2023/01/28 00:57:48;;;;;;;9.30;7.00;;;1.60;99.90;;;;;;5071053;28;20484;-76
2023/01/28 01:00:14;;;;;;;8.63;6.53;;;1.70;99.90;;;;;;5070505;28;20080;-76
2023/01/28 01:02:39;;;;;;;9.27;6.60;;;1.60;99.90;;;;;;5069876;28;20040;-77
2023/01/28 01:05:06;;;;;;;7.90;6.43;;;1.50;99.90;;;;;;5069376;28;20052;-77
2023/01/28 01:07:33;;;;;;;6.70;5.97;;;1.60;99.90;;;;;;5069615;28;20048;-76
2023/01/28 01:10:00;;;;;;;6.73;6.03;;;1.60;99.90;;;;;;5070173;28;20502;-77
2023/01/28 01:12:26;;;;;;;6.97;5.97;;;1.50;99.90;;;;;;5069824;28;20052;-78
2023/01/28 01:14:52;;;;;;;9.80;6.60;;;1.50;99.90;;;;;;5071193;28;20051;-77
2023/01/28 01:17:20;;;;;;;8.63;6.90;;;1.50;99.90;;;;;;5070227;28;20131;-77
2023/01/28 01:19:45;;;;;;;7.60;6.10;;;1.50;99.90;;;;;;5069318;28;20059;-77
2023/01/28 01:22:11;;;;;;;8.67;6.53;;;1.50;99.90;;;;;;5070547;28;20475;-77
2023/01/28 01:24:36;;;;;;;9.77;7.40;;;1.50;99.90;;;;;;5068308;28;20068;-77
2023/01/28 01:27:04;;;;;;;8.90;7.80;;;1.70;99.90;;;;;;5050538;28;20049;-77
2023/01/28 01:29:32;;;;;;;8.40;7.53;;;1.50;99.90;;;;;;5050927;28;20053;-77
2023/01/28 01:31:57;;;;;;;9.13;7.40;;;1.50;99.90;;;;;;5050008;28;20053;-77
2023/01/28 01:34:23;;;;;;;9.00;7.27;;;1.50;99.90;;;;;;5058883;28;20193;-77
2023/01/28 01:36:48;;;;;;;8.90;7.23;;;1.50;99.90;;;;;;5069486;28;20078;-77
2023/01/28 01:39:14;;;;;;;8.33;7.20;;;1.50;99.90;;;;;;5070998;28;20133;-77
2023/01/28 01:41:40;;;;;;;9.00;7.47;;;1.50;99.90;;;;;;5070012;28;20048;-78
2023/01/28 01:44:06;;;;;;;8.80;7.63;;;1.50;99.90;;;;;;5070434;28;20055;-77
2023/01/28 01:46:33;;;;;;;8.27;7.47;;;1.50;99.90;;;;;;5069598;28;20037;-76
2023/01/28 01:49:18;;;;;;;8.87;7.53;;;1.50;99.90;;;;;;5070157;28;20137;-77
2023/01/28 01:51:46;;;;;;;7.73;6.83;;;1.50;99.90;;;;;;5068984;28;20052;-77
2023/01/28 01:54:13;;;;;;;8.63;7.53;;;1.50;99.90;;;;;;5069455;28;20056;-76
2023/01/28 01:56:43;;;;;;;9.37;7.27;;;1.40;99.90;;;;;;5069598;28;20127;-78
2023/01/28 01:59:16;;;;;;;9.30;7.53;;;1.40;99.90;;;;;;5070051;28;20052;-77
2023/01/28 02:01:44;;;;;;;9.00;7.77;;;1.40;99.90;;;;;;5068998;28;20048;-77
2023/01/28 02:04:24;;;;;;;11.43;6.80;;;1.60;99.90;;;;;;5069605;28;20052;-78
2023/01/28 02:06:50;;;;;;;8.00;7.20;;;1.60;99.90;;;;;;5069980;28;20040;-77
2023/01/28 02:09:24;;;;;;;9.40;7.77;;;1.60;99.90;;;;;;5069193;28;20652;-76
2023/01/28 02:11:58;;;;;;;8.67;7.03;;;1.40;99.90;;;;;;5060323;28;20056;-77
2023/01/28 02:14:27;;;;;;;8.73;7.50;;;1.40;99.90;;;;;;5069099;28;20060;-78
2023/01/28 02:16:54;;;;;;;9.53;7.17;;;1.50;99.90;;;;;;5069553;28;20037;-77
2023/01/28 02:19:24;;;;;;;9.27;7.23;;;1.50;99.90;;;;;;5068780;28;20135;-78
2023/01/28 02:22:03;;;;;;;8.50;7.60;;;1.40;99.90;;;;;;5069871;28;20053;-77
2023/01/28 02:24:50;;;;;;;8.60;7.80;;;1.40;99.90;;;;;;5068731;28;20056;-77
2023/01/28 02:27:45;;;;;;;8.87;7.97;;;1.50;99.90;;;;;;5049176;28;20067;-77
2023/01/28 02:30:25;;;;;;;9.27;6.60;;;1.40;99.90;;;;;;5011799;28;20045;-77
2023/01/28 02:32:59;;;;;;;7.43;6.63;;;1.40;99.90;;;;;;5049329;28;20112;-78
2023/01/28 02:35:50;;;;;;;7.80;7.00;;;1.50;99.90;;;;;;5066627;28;20049;-77
2023/01/28 02:38:35;;;;;;;8.80;7.07;;;1.40;99.90;;;;;;5070119;28;20441;-77
2023/01/28 02:41:06;;;;;;;7.63;6.83;;;1.40;99.90;;;;;;5069033;28;20122;-76
2023/01/28 02:43:45;;;;;;;8.52;7.05;;;1.50;99.90;;;;;;5069866;28;20048;-78
2023/01/28 02:49:07;;;;;;;8.63;7.60;;;1.50;99.90;;;;;;5069768;28;20068;-77
2023/01/28 02:51:53;;;;;;;8.20;6.68;;;1.40;99.90;;;;;;5068577;28;20040;-77
2023/01/28 02:54:33;;;;;;;8.57;7.10;;;1.40;99.90;;;;;;5069070;28;20080;-76
2023/01/28 02:57:18;;;;;;;9.27;7.33;;;1.40;99.90;;;;;;5069544;28;20147;-78
2023/01/28 02:59:52;;;;;;;8.13;7.33;;;1.40;99.90;;;;;;5049462;28;20049;-77
2023/01/28 03:02:31;;;;;;;8.63;7.10;;;1.40;99.90;;;;;;5048370;28;20140;-76
2023/01/28 03:05:10;;;;;;;8.73;7.23;;;1.40;99.90;;;;;;5049840;28;20053;-76
2023/01/28 03:07:37;;;;;;;9.03;7.90;;;1.40;99.90;;;;;;5049690;28;20049;-76
2023/01/28 03:10:08;;;;;;;8.03;7.10;;;1.40;99.90;;;;;;5054214;28;20056;-76
2023/01/28 03:38:51;;;;;;;7.87;6.70;;;1.40;99.90;;;;;;5072467;28;20063;-77
2023/01/28 03:41:22;;;;;;;8.97;7.20;;;1.40;99.90;;;;;;5072038;28;20044;-77
2023/01/28 03:43:49;;;;;;;11.73;8.15;;;1.40;99.90;;;;;;5072940;28;20482;-77
2023/01/28 03:46:14;;;;;;;9.13;7.60;;;1.50;99.90;;;;;;5072628;28;20125;-76
2023/01/28 03:48:40;;;;;;;9.77;7.43;;;1.60;99.90;;;;;;5072651;28;20510;-77
2023/01/28 03:51:06;;;;;;;9.60;6.97;;;1.40;99.90;;;;;;5072708;28;20449;-77
2023/01/28 03:53:32;;;;;;;9.47;7.37;;;1.40;99.90;;;;;;5071869;28;20048;-78
2023/01/28 03:55:57;;;;;;;9.60;7.77;;;1.50;99.90;;;;;;5072145;28;20032;-77
2023/01/28 03:58:25;;;;;;;8.93;7.80;;;1.40;99.90;;;;;;5072583;28;20056;-76
2023/01/28 04:00:52;;;;;;;8.67;7.60;;;1.40;99.90;;;;;;5070749;28;20530;-76
2023/01/28 04:03:19;;;;;;;8.83;7.93;;;1.60;99.90;;;;;;5070764;28;20094;-76
2023/01/28 04:05:56;;;;;;;10.43;8.37;;;1.30;99.90;;;;;;5071920;28;20048;-78
2023/01/28 04:08:22;;;;;;;10.50;8.37;;;1.30;99.90;;;;;;5071831;28;20052;-77
2023/01/28 04:10:48;;;;;;;10.27;8.53;;;1.30;99.90;;;;;;5072196;28;20119;-76
2023/01/28 04:13:14;;;;;;;10.17;8.90;;;1.30;99.90;;;;;;5070281;28;20124;-76
2023/01/28 04:15:42;;;;;;;9.77;8.63;;;1.30;99.90;;;;;;5072141;28;20044;-77
2023/01/28 04:18:08;;;;;;;11.80;8.80;;;1.30;99.90;;;;;;5070156;28;20036;-76
2023/01/28 04:20:33;;;;;;;12.03;8.67;;;1.20;99.90;;;;;;5072511;28;20457;-77
2023/01/28 04:22:59;;;;;;;10.50;8.97;;;1.20;99.90;;;;;;5070058;28;20060;-77
2023/01/28 04:25:25;;;;;;;10.57;9.30;;;1.20;99.90;;;;;;5063519;28;20201;-77
2023/01/28 04:27:50;;;;;;;11.77;9.47;;;1.30;99.90;;;;;;5051176;28;20095;-77
2023/01/28 04:30:16;;;;;;;10.33;9.23;;;1.20;99.90;;;;;;5051976;28;20049;-76
2023/01/28 04:32:42;;;;;;;10.93;9.37;;;1.20;99.90;;;;;;5051121;28;20127;-78
2023/01/28 04:35:08;;;;;;;10.70;9.60;;;1.20;99.90;;;;;;5066180;28;20565;-77
2023/01/28 04:37:34;;;;;;;12.50;9.30;;;1.20;99.90;;;;;;5070775;28;20381;-77
2023/01/28 04:39:59;;;;;;;11.10;8.50;;;1.20;99.90;;;;;;5072002;28;20048;-77
2023/01/28 04:42:25;;;;;;;14.03;10.07;;;1.20;99.90;;;;;;5071322;28;20041;-76
2023/01/28 04:44:51;;;;;;;10.23;9.03;;;1.20;99.90;;;;;;5071407;28;20070;-77
2023/01/28 04:47:18;;;;;;;11.70;9.07;;;1.20;99.90;;;;;;5070458;28;20547;-77
2023/01/28 04:49:44;;;;;;;10.93;9.60;;;1.20;99.90;;;;;;5071841;28;20060;-76
2023/01/28 04:52:10;;;;;;;11.40;9.73;;;1.20;99.90;;;;;;5070157;28;20053;-77
2023/01/28 04:54:35;;;;;;;11.90;10.03;;;1.10;99.90;;;;;;5072075;28;20079;-76
2023/01/28 04:57:02;;;;;;;11.33;9.43;;;1.20;99.90;;;;;;5071059;28;20044;-76
2023/01/28 04:59:27;;;;;;;12.97;10.30;;;1.10;99.90;;;;;;5053487;28;20410;-77
2023/01/28 05:01:53;;;;;;;13.10;9.43;;;1.10;99.90;;;;;;5071239;28;20405;-77
2023/01/28 05:04:18;;;;;;;12.20;9.67;;;1.10;99.90;;;;;;5071430;28;20055;-77
2023/01/28 05:06:44;;;;;;;11.67;9.80;;;1.10;99.90;;;;;;5071579;28;20037;-77
2023/01/28 05:09:10;;;;;;;11.60;9.40;;;1.10;99.90;;;;;;5070268;28;20547;-77
2023/01/28 05:11:35;;;;;;;10.60;9.43;;;1.10;99.90;;;;;;5070014;28;20055;-77
2023/01/28 05:14:01;;;;;;;12.27;10.43;;;1.10;99.90;;;;;;5069745;28;20037;-77
2023/01/28 05:16:27;;;;;;;11.97;10.17;;;1.10;99.90;;;;;;5069485;28;20055;-77
2023/01/28 05:18:52;;;;;;;13.00;11.00;;;1.10;99.90;;;;;;5067263;28;20123;-77
2023/01/28 05:21:18;;;;;;;15.47;10.53;;;1.10;99.90;;;;;;5068414;28;20483;-76
2023/01/28 05:23:44;;;;;;;13.60;10.00;;;1.20;99.90;;;;;;5067567;28;20133;-77
2023/01/28 05:26:10;;;;;;;13.50;10.60;;;1.10;99.90;;;;;;5069663;28;20484;-77
2023/01/28 05:28:35;;;;;;;14.07;11.63;;;1.10;99.90;;;;;;5069952;28;20053;-77
2023/01/28 05:31:03;;;;;;;16.53;12.67;;;1.10;99.90;;;;;;5070656;28;20101;-76
2023/01/28 05:33:28;;;;;;;13.30;11.13;;;1.10;99.90;;;;;;5069247;28;20076;-77
2023/01/28 05:35:54;;;;;;;12.50;10.30;;;1.10;99.90;;;;;;5068892;28;20115;-77
2023/01/28 05:38:20;;;;;;;12.40;10.33;;;1.10;99.90;;;;;;5071215;28;20049;-77
2023/01/28 05:40:46;;;;;;;12.00;9.83;;;1.10;99.90;;;;;;5070814;28;20083;-77
2023/01/28 05:43:12;;;;;;;12.13;9.63;;;1.10;99.90;;;;;;5066806;28;20098;-77
2023/01/28 05:45:38;;;;;;;11.93;10.20;;;1.10;99.90;;;;;;5067924;28;20131;-77
2023/01/28 05:48:04;;;;;;;12.53;9.87;;;1.30;99.90;;;;;;5065856;28;20060;-77
2023/01/28 05:50:29;;;;;;;11.87;9.50;;;1.10;99.90;;;;;;5066599;28;20101;-79
2023/01/28 05:52:55;;;;;;;12.70;9.40;;;1.20;99.90;;;;;;5068548;28;20052;-76
2023/01/28 05:55:21;;;;;;;11.10;8.67;;;1.10;99.90;;;;;;5070909;28;20072;-76
2023/01/28 05:57:47;;;;;;;11.83;9.00;;;1.10;99.90;;;;;;5069581;28;20041;-77
2023/01/28 06:00:14;;;;;;;9.97;8.83;;;1.10;99.90;;;;;;5070712;28;20056;-76
2023/01/28 06:02:40;;;;;;;15.23;9.23;;;1.10;99.90;;;;;;5068353;28;20055;-77
2023/01/28 06:05:07;;;;;;;10.57;8.50;;;1.10;99.90;;;;;;5070556;28;20040;-77
2023/01/28 06:07:32;;;;;;;13.57;8.80;;;1.10;99.90;;;;;;5069602;28;20045;-79
2023/01/28 06:09:58;;;;;;;12.30;9.00;;;1.30;99.90;;;;;;5070682;28;20048;-76
2023/01/28 06:12:24;;;;;;;10.23;8.57;;;1.10;99.90;;;;;;5069727;28;20040;-77
2023/01/28 06:14:49;;;;;;;10.07;8.50;;;1.20;99.90;;;;;;5070323;28;20399;-76
2023/01/28 06:17:15;;;;;;;10.80;8.63;;;1.20;99.90;;;;;;5070051;28;20045;-77
2023/01/28 06:19:41;;;;;;;10.50;8.43;;;1.20;99.90;;;;;;5070005;28;20048;-77
2023/01/28 06:22:07;;;;;;;11.97;9.13;;;1.20;99.90;;;;;;5051804;28;20044;-77
2023/01/28 06:24:32;;;;;;;11.23;9.13;;;1.20;99.90;;;;;;5067612;28;20554;-77
2023/01/28 06:26:58;;;;;;;9.97;8.90;;;1.10;99.90;;;;;;5047627;28;20071;-77
2023/01/28 06:29:24;;;;;;;10.77;8.70;;;1.20;99.90;;;;;;5048237;28;20061;-76
2023/01/28 06:31:49;;;;;;;9.97;8.70;;;1.10;99.90;;;;;;5049070;28;20045;-76
2023/01/28 06:34:16;;;;;;;10.90;8.83;;;1.10;99.90;;;;;;5056236;28;20049;-77
2023/01/28 06:36:41;;;;;;;12.17;9.03;;;1.10;99.90;;;;;;5051770;28;20059;-76
2023/01/28 06:39:07;;;;;;;12.37;9.37;;;1.10;99.90;;;;;;5069738;28;20049;-76
2023/01/28 06:41:33;;;;;;;11.77;9.10;;;1.10;99.90;;;;;;5069258;28;20090;-76
2023/01/28 06:43:58;;;;;;;11.77;8.80;;;1.10;99.90;;;;;;5069035;28;20686;-77
2023/01/28 06:46:24;;;;;;;10.20;8.60;;;1.10;99.90;;;;;;5069250;28;20045;-77
2023/01/28 06:48:50;;;;;;;10.87;9.17;;;1.10;99.90;;;;;;5068216;28;20521;-77
2023/01/28 06:51:16;;;;;;;12.47;8.80;;;1.00;99.90;;;;;;5069429;28;20435;-77
2023/01/28 06:53:41;;;;;;;10.40;9.00;;;1.00;99.90;;;;;;5069018;28;20045;-77
2023/01/28 06:56:07;;;;;;;10.80;8.87;;;1.00;99.90;;;;;;5069462;28;20123;-77
2023/01/28 06:58:34;;;;;;;10.90;9.00;;;1.10;99.90;;;;;;5069094;28;20132;-76
2023/01/28 07:01:00;;;;;;;11.10;8.73;;;1.00;99.90;;;;;;5069787;28;20477;-77
2023/01/28 07:03:25;;;;;;;10.47;9.10;;;1.00;99.90;;;;;;5069088;28;20080;-77
2023/01/28 07:05:51;;;;;;;12.37;8.83;;;1.00;99.90;;;;;;5069740;28;20044;-76
2023/01/28 07:08:17;;;;;;;9.93;8.93;;;1.00;99.90;;;;;;5068045;28;20150;-77
2023/01/28 07:10:43;;;;;;;10.10;9.00;;;1.00;99.90;;;;;;5066862;28;20051;-78
2023/01/28 07:13:09;;;;;;;14.10;9.73;;;1.20;99.90;;;;;;5068108;28;20052;-76
2023/01/28 07:15:35;;;;;;;13.53;9.60;;;0.90;99.90;;;;;;5064989;28;20043;-76
2023/01/28 07:18:01;;;;;;;11.23;8.50;;;0.80;99.90;;;;;;5058648;28;20132;-77
2023/01/28 07:20:27;;;;;;;11.37;9.43;;;0.90;99.90;;;;;;5063366;28;20131;-77
2023/01/28 07:22:52;;;;;;;10.30;8.97;;;0.70;99.90;;;;;;5061184;28;20410;-77
2023/01/28 07:25:18;;;;;;;12.90;10.13;;;0.60;99.90;;;;;;5064227;28;20060;-76
2023/01/28 07:27:49;;;;;;;15.57;10.83;;;0.60;99.90;;;;;;5063709;28;20494;-77
2023/01/28 07:30:16;;;;;;;13.85;10.00;;;0.50;99.90;;;;;;5065312;28;20056;-77
2023/01/28 07:32:42;;;;;;;13.93;10.27;;;0.50;99.90;;;;;;5064152;28;20044;-77
2023/01/28 07:35:08;;;;;;;15.70;11.03;;;0.50;99.90;;;;;;5079745;28;20738;-76
2023/01/28 07:37:33;;;;;;;21.00;13.93;;;0.40;99.90;;;;;;5062570;28;20131;-76
2023/01/28 07:39:59;;;;;;;21.07;14.00;;;0.40;99.90;;;;;;5065270;28;20048;-76
2023/01/28 07:42:25;;;;;;;20.20;13.40;;;0.40;99.90;;;;;;5063961;28;20127;-77
2023/01/28 07:44:50;;;;;;;19.47;12.23;;;0.40;99.90;;;;;;5064976;28;20044;-77
2023/01/28 07:47:16;;;;;;;20.50;14.20;;;0.40;99.90;;;;;;5063671;28;20397;-76
2023/01/28 07:49:42;;;;;;;22.50;13.73;;;0.50;99.90;;;;;;5065005;28;20467;-76
2023/01/28 07:52:08;;;;;;;15.53;11.47;;;0.40;99.90;;;;;;5063813;28;20040;-76
2023/01/28 07:54:33;;;;;;;19.27;12.87;;;0.40;99.90;;;;;;5064604;28;20530;-76
2023/01/28 07:56:59;;;;;;;23.27;14.10;;;0.50;99.90;;;;;;5065458;28;20044;-76
2023/01/28 07:59:25;;;;;;;28.97;15.93;;;0.40;99.90;;;;;;5064654;28;20036;-76
2023/01/28 08:01:52;;;;;;;19.00;12.63;;;0.40;99.90;;;;;;5064592;28;20585;-76
2023/01/28 08:04:18;;;;;;;14.30;11.40;;;0.50;99.90;;;;;;5064514;28;20068;-77
2023/01/28 08:06:44;;;;;;;13.40;12.03;;;0.60;99.90;;;;;;5065477;28;20140;-77
2023/01/28 08:09:10;;;;;;;12.07;9.90;;;0.70;99.90;;;;;;5064952;28;20049;-76
2023/01/28 08:11:39;;;;;;;14.83;9.97;;;0.90;99.90;;;;;;5062004;28;20048;-77
2023/01/28 08:14:05;;;;;;;11.73;10.07;;;0.80;99.90;;;;;;5067025;28;20056;-76
2023/01/28 08:16:31;;;;;;;13.17;9.73;;;0.90;99.90;;;;;;5068296;28;20037;-76
2023/01/28 08:18:56;;;;;;;11.30;9.97;;;1.10;99.90;;;;;;5068049;28;20051;-76
2023/01/28 08:21:22;;;;;;;10.67;8.97;;;0.90;99.90;;;;;;5068426;28;20052;-77
2023/01/28 08:23:48;;;;;;;12.63;11.03;;;1.00;99.90;;;;;;5068286;28;20056;-77
2023/01/28 08:26:14;;;;;;;13.30;10.13;;;0.90;99.90;;;;;;5050157;28;20182;-77
2023/01/28 08:28:40;;;;;;;13.30;9.40;;;1.00;99.90;;;;;;5068084;28;20056;-77
2023/01/28 08:31:05;;;;;;;13.20;10.20;;;0.90;99.90;;;;;;5067753;28;20040;-78
2023/01/28 08:33:31;;;;;;;14.17;10.53;;;0.90;99.90;;;;;;5067516;28;20086;-76
2023/01/28 08:35:57;;;;;;;12.23;10.03;;;0.90;99.90;;;;;;5067368;28;20147;-77
2023/01/28 08:38:22;;;;;;;14.00;9.77;;;1.00;99.90;;;;;;5067357;28;20045;-77
2023/01/28 08:40:49;;;;;;;11.60;9.73;;;1.20;99.90;;;;;;5068417;28;20072;-77
2023/01/28 08:43:15;;;;;;;13.73;9.80;;;1.30;99.90;;;;;;5067350;28;20159;-76
2023/01/28 08:45:41;;;;;;;11.47;9.53;;;1.60;99.90;;;;;;5068334;28;20483;-77
2023/01/28 08:48:10;;;;;;;13.70;10.93;;;1.40;99.90;;;;;;5067117;28;20053;-77
2023/01/28 08:50:39;;;;;;;12.13;10.20;;;1.30;99.90;;;;;;5066312;28;20049;-77
2023/01/28 08:53:11;;;;;;;12.57;9.77;;;1.80;99.90;;;;;;5064779;28;20080;-77
2023/01/28 08:55:37;;;;;;;11.77;10.10;;;1.90;99.90;;;;;;5067941;28;20040;-76
2023/01/28 08:58:04;;;;;;;10.00;8.77;;;1.40;99.90;;;;;;5067385;28;20062;-77
2023/01/28 09:00:31;;;;;;;10.97;9.13;;;1.40;99.90;;;;;;5066868;28;20127;-77
2023/01/28 09:02:56;;;;;;;11.80;10.27;;;1.40;99.90;;;;;;5066451;28;20071;-77
2023/01/28 09:05:22;;;;;;;11.23;9.70;;;1.40;99.90;;;;;;5050250;28;20075;-77
2023/01/28 09:07:48;;;;;;;10.80;9.30;;;1.40;99.90;;;;;;5065907;28;20052;-77
2023/01/28 09:10:15;;;;;;;9.50;8.43;;;1.60;99.90;;;;;;5065958;28;20064;-76
2023/01/28 09:12:41;;;;;;;11.10;9.67;;;1.80;99.90;;;;;;5066985;28;20052;-77
2023/01/28 09:15:08;;;;;;;10.10;9.10;;;2.10;99.90;;;;;;5067379;28;20832;-77
2023/01/28 09:17:33;;;;;;;10.33;9.23;;;2.40;99.90;;;;;;5066405;28;20056;-78
2023/01/28 09:19:59;;;;;;;12.43;11.23;;;2.20;99.90;;;;;;5067680;28;20048;-78
2023/01/28 09:22:25;;;;;;;11.33;9.47;;;2.00;99.90;;;;;;5067307;28;20149;-77
2023/01/28 09:24:50;;;;;;;12.97;11.77;;;2.00;99.90;;;;;;5066586;28;20577;-77
2023/01/28 09:27:16;;;;;;;11.17;9.90;;;1.90;99.90;;;;;;5066490;28;20076;-77
2023/01/28 09:29:42;;;;;;;10.67;9.57;;;2.20;99.90;;;;;;5066883;28;20099;-77
2023/01/28 09:32:08;;;;;;;11.53;10.43;;;2.10;99.90;;;;;;5065822;28;20047;-78
2023/01/28 09:34:34;;;;;;;16.00;10.47;;;2.20;99.90;;;;;;5064992;28;20048;-77
2023/01/28 09:36:59;;;;;;;13.13;11.83;;;2.30;99.90;;;;;;5066683;28;20101;-77
2023/01/28 09:39:27;;;;;;;13.47;11.63;;;2.40;99.90;;;;;;5049384;28;20368;-78
2023/01/28 09:42:26;;;;;;;14.60;13.10;;;2.40;99.90;;;;;;5065875;28;20049;-77
2023/01/28 09:45:14;;;;;;;14.40;13.00;;;2.30;99.90;;;;;;5066819;28;20059;-77
2023/01/28 09:47:44;;;;;;;12.80;11.47;;;2.40;99.90;;;;;;5066150;28;20049;-77
2023/01/28 09:50:29;;;;;;;12.97;11.77;;;2.50;99.90;;;;;;5066746;28;20052;-76
2023/01/28 09:52:59;;;;;;;13.87;12.37;;;2.60;99.90;;;;;;5066113;28;20053;-77
2023/01/28 09:55:38;;;;;;;18.70;17.10;;;2.70;99.90;;;;;;5066849;28;20045;-78
2023/01/28 09:58:11;;;;;;;13.17;10.67;;;2.80;99.90;;;;;;5065576;28;20051;-77
2023/01/28 10:00:46;;;;;;;13.17;10.37;;;3.30;99.90;;;;;;5065829;28;20056;-78
2023/01/28 10:03:26;;;;;;;11.20;9.67;;;3.00;99.90;;;;;;5065844;28;20494;-77
2023/01/28 10:06:27;;;;;;;10.23;9.07;;;3.10;99.90;;;;;;5066144;28;20044;-78
2023/01/28 10:09:07;;;;;;;13.23;11.03;;;3.20;99.90;;;;;;5065615;28;20048;-77
2023/01/28 10:11:45;;;;;;;13.48;12.25;;;3.00;99.90;;;;;;5063596;28;20080;-79
2023/01/28 10:14:26;;;;;;;10.73;9.27;;;3.00;99.90;;;;;;5062924;28;20056;-78
2023/01/28 10:17:06;;;;;;;10.43;9.20;;;3.10;99.90;;;;;;5058212;28;20064;-78
2023/01/28 10:19:38;;;;;;;11.67;10.47;;;3.10;99.90;;;;;;5066334;28;20048;-78
2023/01/28 10:22:40;;;;;;;12.07;9.57;;;3.20;99.90;;;;;;5065142;28;20055;-78
2023/01/28 10:25:21;;;;;;;10.27;7.53;;;3.10;99.90;;;;;;5063072;28;20449;-77
2023/01/28 10:27:49;;;;;;;13.00;10.23;;;3.10;99.90;;;;;;5046515;28;20412;-77
2023/01/28 10:30:37;;;;;;;11.50;10.27;;;3.10;99.90;;;;;;5054155;28;20048;-77
2023/01/28 10:33:17;;;;;;;11.50;9.50;;;3.10;99.90;;;;;;5062539;28;20545;-77
2023/01/28 10:35:43;;;;;;;12.63;11.33;;;3.20;99.90;;;;;;5062625;28;20041;-77
2023/01/28 10:38:14;;;;;;;11.97;10.07;;;3.20;99.90;;;;;;5066135;28;20448;-77
2023/01/28 10:40:43;;;;;;;11.27;8.93;;;3.40;99.90;;;;;;5065802;28;20502;-78
2023/01/28 10:43:09;;;;;;;10.97;9.57;;;3.50;99.90;;;;;;5065593;28;20294;-77
2023/01/28 10:45:45;;;;;;;10.80;9.70;;;3.70;99.90;;;;;;5066035;28;20123;-77
2023/01/28 10:48:31;;;;;;;13.83;10.20;;;3.50;99.90;;;;;;5064512;28;20079;-77
2023/01/28 10:51:04;;;;;;;11.97;10.03;;;3.70;99.90;;;;;;5065567;28;20060;-78
2023/01/28 10:53:37;;;;;;;11.50;8.83;;;3.80;99.90;;;;;;5065651;28;20447;-77
2023/01/28 10:56:06;;;;;;;11.80;8.67;;;4.10;99.90;;;;;;5065596;28;20584;-77
2023/01/28 10:58:36;;;;;;;9.80;8.83;;;4.20;99.90;;;;;;5064522;28;20495;-77
2023/01/28 11:01:06;;;;;;;13.73;12.53;;;3.90;99.90;;;;;;5065275;28;20056;-77
2023/01/28 11:03:34;;;;;;;11.57;9.17;;;3.80;99.90;;;;;;5066149;28;20498;-77
2023/01/28 11:06:01;;;;;;;11.93;9.93;;;3.80;99.90;;;;;;5065115;28;20505;-78
2023/01/28 11:08:28;;;;;;;11.50;10.30;;;3.90;99.90;;;;;;5066161;28;20052;-77
2023/01/28 11:10:56;;;;;;;10.30;9.10;;;3.70;99.90;;;;;;5047502;28;20064;-78
2023/01/28 11:13:28;;;;;;;12.53;8.60;;;3.90;99.90;;;;;;5064830;28;20047;-78
2023/01/28 11:16:14;;;;;;;15.77;14.37;;;3.80;99.90;;;;;;5063804;28;20040;-79
2023/01/28 11:18:59;;;;;;;13.77;9.30;;;3.70;99.90;;;;;;5062327;28;20053;-77
2023/01/28 11:21:29;;;;;;;13.93;12.30;;;3.80;99.90;;;;;;5064131;28;20045;-78
2023/01/28 11:24:13;;;;;;;10.77;9.57;;;3.70;99.90;;;;;;5064337;28;20458;-77
2023/01/28 11:26:44;;;;;;;11.00;9.77;;;3.70;99.90;;;;;;5065543;28;20137;-77
2023/01/28 11:29:25;;;;;;;11.33;10.13;;;3.60;99.90;;;;;;5066211;28;20052;-78
2023/01/28 11:31:51;;;;;;;10.45;7.75;;;3.60;99.90;;;;;;5064484;28;20040;-79
2023/01/28 11:34:18;;;;;;;10.80;9.40;;;3.60;99.90;;;;;;5065633;28;20060;-79
2023/01/28 11:36:53;;;;;;;13.20;11.90;;;3.70;99.90;;;;;;5065544;28;20495;-77
2023/01/28 11:39:24;;;;;;;13.03;11.73;;;3.70;99.90;;;;;;5066336;28;20124;-77
2023/01/28 11:41:52;;;;;;;11.30;10.07;;;3.60;99.90;;;;;;5066511;28;20059;-77
2023/01/28 11:44:23;;;;;;;15.50;13.97;;;3.70;99.90;;;;;;5066582;28;20123;-79
2023/01/28 11:47:13;;;;;;;16.42;10.50;;;3.60;99.90;;;;;;5067215;28;20189;-77
2023/01/28 11:49:57;;;;;;;11.97;10.13;;;3.60;99.90;;;;;;5072452;28;20059;-77
2023/01/28 11:52:35;;;;;;;12.87;11.53;;;3.60;99.90;;;;;;5071966;28;20044;-76
2023/01/28 11:55:19;;;;;;;12.77;9.63;;;3.60;99.90;;;;;;5072017;28;20052;-76
2023/01/28 11:57:56;;;;;;;11.97;9.33;;;3.70;99.90;;;;;;5071638;28;20045;-77
2023/01/28 12:00:44;;;;;;;16.00;9.83;;;3.70;99.90;;;;;;5073103;28;20076;-77
2023/01/28 12:03:31;;;;;;;12.47;10.50;;;3.80;99.90;;;;;;5071259;28;20121;-77
2023/01/28 12:06:29;;;;;;;19.73;8.63;;;3.80;99.90;;;;;;5072531;28;20048;-77
2023/01/28 12:09:09;;;;;;;14.83;12.00;;;3.60;99.90;;;;;;5046017;28;20182;-78
2023/01/28 12:12:10;;;;;;;15.70;11.07;;;3.50;99.90;;;;;;5070878;28;20052;-77
2023/01/28 12:14:42;;;;;;;14.20;11.67;;;3.50;99.90;;;;;;5038496;28;20543;-77
2023/01/28 12:17:07;;;;;;;;;;;3.90;99.90;;;;;;5072245;28;20363;-77
2023/01/28 12:20:01;;;;;;;13.37;10.60;;;4.60;99.90;;;;;;5071713;28;20395;-77
2023/01/28 12:22:35;;;;;;;17.37;15.63;;;5.20;99.90;;;;;;5071704;28;20049;-77
2023/01/28 12:25:18;;;;;;;17.13;14.57;;;5.50;99.90;;;;;;5066784;28;20048;-78
2023/01/28 12:28:00;;;;;;;15.93;10.57;;;5.50;99.90;;;;;;5050623;28;20478;-77
2023/01/28 12:30:37;;;;;;;14.50;13.27;;;5.80;99.90;;;;;;5052281;28;20041;-78
2023/01/28 12:33:25;;;;;;;22.63;20.77;;;5.60;99.90;;;;;;5051426;28;20514;-77
2023/01/28 12:36:05;;;;;;;11.97;10.60;;;5.40;99.90;;;;;;5059500;28;20508;-78
2023/01/28 12:39:08;;;;;;;8.63;7.72;;;5.90;99.90;;;;;;5068409;28;20071;-78
2023/01/28 12:42:05;;;;;;;12.23;11.13;;;5.80;99.90;;;;;;5020795;28;20057;-79
2023/01/28 12:44:40;;;;;;;10.80;8.57;;;6.10;99.90;;;;;;5037106;28;20087;-78
2023/01/28 12:47:11;;;;;;;12.30;9.87;;;6.50;99.90;;;;;;5067234;28;20076;-78
2023/01/28 12:49:42;;;;;;;14.20;13.00;;;6.70;99.90;;;;;;5067003;28;20051;-78
2023/01/28 12:52:32;;;;;;;22.93;21.33;;;6.70;99.90;;;;;;5067360;28;20103;-78
2023/01/28 12:55:05;;;;;;;12.47;9.67;;;6.90;99.90;;;;;;5068153;28;20109;-78
2023/01/28 12:57:33;;;;;;;46.77;43.93;;;7.50;99.90;;;;;;5067927;28;20040;-78
2023/01/28 13:00:24;;;;;;;26.87;25.07;;;7.00;99.90;;;;;;5067290;28;20056;-78
2023/01/28 13:03:10;;;;;;;21.25;19.60;;;6.50;99.90;;;;;;5066329;28;20123;-78
2023/01/28 13:05:46;;;;;;;11.13;8.97;;;6.50;99.90;;;;;;5068555;28;20582;-77
2023/01/28 13:08:11;;;;;;;10.80;8.63;;;6.80;99.90;;;;;;5067229;28;20052;-78
2023/01/28 13:10:41;;;;;;;17.07;15.73;;;7.60;99.90;;;;;;5067249;28;20044;-78
2023/01/28 13:13:33;;;;;;;14.83;13.50;;;6.70;99.90;;;;;;5066418;28;20139;-77
2023/01/28 13:15:59;;;;;;;17.70;16.05;;;6.80;99.90;;;;;;5067668;28;20766;-78
2023/01/28 13:18:41;;;;;;;32.93;30.77;;;6.40;99.90;;;;;;5066194;28;20049;-79
2023/01/28 13:21:31;;;;;;;22.23;20.57;;;5.70;99.90;;;;;;5055962;28;20145;-78
2023/01/28 13:24:20;;;;;;;12.27;11.07;;;5.40;99.90;;;;;;5066461;28;20049;-77
2023/01/28 13:26:54;;;;;;;12.13;11.07;;;5.20;99.90;;;;;;5062737;28;20056;-77
2023/01/28 13:29:23;;;;;;;15.40;14.03;;;5.00;99.90;;;;;;5067749;28;20052;-78
2023/01/28 13:31:52;;;;;;;22.33;20.63;;;4.90;99.90;;;;;;5066934;28;20060;-79